sensor_id;sensor_type;location;lat;lon;timestamp;pressure;altitude;pressure_sealevel;temperature;humidity
77737;BME280;66903;59.926;30.404;2023-03-15T00:01:37;98868.06;;;25.15;35.29
77737;BME280;66903;59.926;30.404;2023-03-15T00:06:38;98875.53;;;25.19;34.86
77737;BME280;66903;59.926;30.404;2023-03-15T00:11:38;98871.16;;;25.22;34.86
77737;BME280;66903;59.926;30.404;2023-03-15T00:16:39;98855.66;;;25.23;34.89
77737;BME280;66903;59.926;30.404;2023-03-15T00:21:42;98861.75;;;25.22;34.67
77737;BME280;66903;59.926;30.404;2023-03-15T00:26:42;98858.88;;;25.22;34.85
77737;BME280;66903;59.926;30.404;2023-03-15T00:31:43;98858.88;;;25.22;35.07
77737;BME280;66903;59.926;30.404;2023-03-15T00:36:44;98870.78;;;25.24;34.77
77737;BME280;66903;59.926;30.404;2023-03-15T00:41:45;98875.78;;;25.27;34.87
77737;BME280;66903;59.926;30.404;2023-03-15T00:46:46;98892.25;;;25.30;35.02
77737;BME280;66903;59.926;30.404;2023-03-15T00:51:46;98886.16;;;25.31;35.05
77737;BME280;66903;59.926;30.404;2023-03-15T00:56:46;98892.00;;;25.35;34.74
77737;BME280;66903;59.926;30.404;2023-03-15T01:01:47;98892.94;;;25.39;34.94
77737;BME280;66903;59.926;30.404;2023-03-15T01:06:47;98881.88;;;25.37;35.12
77737;BME280;66903;59.926;30.404;2023-03-15T01:11:48;98884.38;;;25.39;34.79
77737;BME280;66903;59.926;30.404;2023-03-15T01:16:48;98877.00;;;25.38;34.54
77737;BME280;66903;59.926;30.404;2023-03-15T01:21:49;98878.22;;;25.37;34.56
77737;BME280;66903;59.926;30.404;2023-03-15T01:26:49;98890.09;;;25.39;34.87
77737;BME280;66903;59.926;30.404;2023-03-15T01:31:50;98891.78;;;25.40;35.05
77737;BME280;66903;59.926;30.404;2023-03-15T01:36:51;98900.47;;;25.43;35.04
77737;BME280;66903;59.926;30.404;2023-03-15T01:42:29;98900.94;;;25.45;35.13
77737;BME280;66903;59.926;30.404;2023-03-15T01:47:48;98907.38;;;25.42;35.08
77737;BME280;66903;59.926;30.404;2023-03-15T01:52:48;98897.59;;;25.43;35.10
77737;BME280;66903;59.926;30.404;2023-03-15T01:57:53;98909.41;;;25.42;34.96
77737;BME280;66903;59.926;30.404;2023-03-15T02:03:03;98903.56;;;25.50;34.67
77737;BME280;66903;59.926;30.404;2023-03-15T02:08:07;98906.31;;;25.47;34.86
77737;BME280;66903;59.926;30.404;2023-03-15T02:13:08;98911.66;;;25.48;34.72
77737;BME280;66903;59.926;30.404;2023-03-15T02:18:15;98899.03;;;25.49;35.02
77737;BME280;66903;59.926;30.404;2023-03-15T02:23:20;98903.44;;;25.47;35.13
77737;BME280;66903;59.926;30.404;2023-03-15T02:28:21;98906.91;;;25.40;35.01
77737;BME280;66903;59.926;30.404;2023-03-15T02:38:25;98923.69;;;25.42;34.99
77737;BME280;66903;59.926;30.404;2023-03-15T02:43:28;98926.19;;;25.43;35.21
77737;BME280;66903;59.926;30.404;2023-03-15T02:48:33;98937.63;;;25.43;35.31
77737;BME280;66903;59.926;30.404;2023-03-15T02:53:35;98940.00;;;25.41;35.46
77737;BME280;66903;59.926;30.404;2023-03-15T02:58:35;98956.31;;;25.41;35.36
77737;BME280;66903;59.926;30.404;2023-03-15T03:03:36;98955.97;;;25.42;35.45
77737;BME280;66903;59.926;30.404;2023-03-15T03:08:37;98954.78;;;25.43;35.55
77737;BME280;66903;59.926;30.404;2023-03-15T03:13:38;98957.28;;;25.45;35.26
77737;BME280;66903;59.926;30.404;2023-03-15T03:19:09;98961.91;;;25.49;35.13
77737;BME280;66903;59.926;30.404;2023-03-15T03:24:28;98969.94;;;25.44;35.26
77737;BME280;66903;59.926;30.404;2023-03-15T03:29:29;98961.34;;;25.44;35.15
77737;BME280;66903;59.926;30.404;2023-03-15T03:34:29;98978.13;;;25.45;35.38
77737;BME280;66903;59.926;30.404;2023-03-15T03:39:30;98979.78;;;25.46;35.29
77737;BME280;66903;59.926;30.404;2023-03-15T03:44:31;98986.00;;;25.48;35.35
77737;BME280;66903;59.926;30.404;2023-03-15T03:49:32;98997.91;;;25.50;35.24
77737;BME280;66903;59.926;30.404;2023-03-15T03:54:32;98986.84;;;25.49;35.25
77737;BME280;66903;59.926;30.404;2023-03-15T03:59:32;98997.06;;;25.50;35.10
77737;BME280;66903;59.926;30.404;2023-03-15T04:04:33;99010.19;;;25.51;35.28
77737;BME280;66903;59.926;30.404;2023-03-15T04:09:33;99001.63;;;25.51;35.25
77737;BME280;66903;59.926;30.404;2023-03-15T04:14:36;99013.75;;;25.48;34.94
77737;BME280;66903;59.926;30.404;2023-03-15T04:19:37;99026.34;;;25.35;35.28
77737;BME280;66903;59.926;30.404;2023-03-15T04:24:37;99039.03;;;25.25;34.97
77737;BME280;66903;59.926;30.404;2023-03-15T04:29:40;99042.13;;;25.20;35.31
77737;BME280;66903;59.926;30.404;2023-03-15T04:34:41;99044.03;;;25.16;36.25
77737;BME280;66903;59.926;30.404;2023-03-15T04:39:41;99043.22;;;25.15;35.89
77737;BME280;66903;59.926;30.404;2023-03-15T04:44:42;99054.97;;;25.14;35.95
77737;BME280;66903;59.926;30.404;2023-03-15T04:49:42;99050.31;;;25.09;36.16
77737;BME280;66903;59.926;30.404;2023-03-15T04:54:43;99056.53;;;25.11;36.09
77737;BME280;66903;59.926;30.404;2023-03-15T04:59:43;99069.59;;;25.12;36.34
77737;BME280;66903;59.926;30.404;2023-03-15T05:04:44;99079.03;;;25.13;36.39
77737;BME280;66903;59.926;30.404;2023-03-15T05:09:44;99081.75;;;25.09;36.21
77737;BME280;66903;59.926;30.404;2023-03-15T05:14:45;99083.75;;;25.09;36.10
77737;BME280;66903;59.926;30.404;2023-03-15T05:19:45;99089.47;;;25.09;36.34
77737;BME280;66903;59.926;30.404;2023-03-15T05:24:46;99081.13;;;25.04;36.13
77737;BME280;66903;59.926;30.404;2023-03-15T05:29:46;99096.41;;;25.08;35.99
77737;BME280;66903;59.926;30.404;2023-03-15T05:34:47;99083.28;;;25.07;36.00
77737;BME280;66903;59.926;30.404;2023-03-15T05:39:47;99079.13;;;25.04;35.84
77737;BME280;66903;59.926;30.404;2023-03-15T05:44:48;99088.19;;;25.06;36.08
77737;BME280;66903;59.926;30.404;2023-03-15T05:49:49;99099.25;;;25.08;35.63
77737;BME280;66903;59.926;30.404;2023-03-15T05:54:49;99107.81;;;25.08;35.88
77737;BME280;66903;59.926;30.404;2023-03-15T05:59:50;99116.19;;;25.13;35.45
77737;BME280;66903;59.926;30.404;2023-03-15T06:04:51;99126.22;;;25.19;35.54
77737;BME280;66903;59.926;30.404;2023-03-15T06:09:51;99123.50;;;25.23;35.48
77737;BME280;66903;59.926;30.404;2023-03-15T06:14:52;99126.81;;;25.25;35.34
77737;BME280;66903;59.926;30.404;2023-03-15T06:19:52;99143.94;;;25.25;35.39
77737;BME280;66903;59.926;30.404;2023-03-15T06:24:53;99155.38;;;25.25;35.17
77737;BME280;66903;59.926;30.404;2023-03-15T06:29:53;99139.44;;;25.24;35.23
77737;BME280;66903;59.926;30.404;2023-03-15T06:34:55;99151.56;;;25.21;35.03
77737;BME280;66903;59.926;30.404;2023-03-15T06:39:55;99147.03;;;25.19;35.07
77737;BME280;66903;59.926;30.404;2023-03-15T06:44:56;99163.00;;;25.21;35.07
77737;BME280;66903;59.926;30.404;2023-03-15T06:49:56;99161.53;;;25.14;35.10
77737;BME280;66903;59.926;30.404;2023-03-15T06:54:57;99153.69;;;25.11;35.07
77737;BME280;66903;59.926;30.404;2023-03-15T06:59:57;99168.47;;;25.13;34.92
77737;BME280;66903;59.926;30.404;2023-03-15T07:04:58;99174.16;;;25.13;34.63
77737;BME280;66903;59.926;30.404;2023-03-15T07:09:58;99187.47;;;25.09;34.77
77737;BME280;66903;59.926;30.404;2023-03-15T07:14:59;99196.03;;;25.09;34.84
77737;BME280;66903;59.926;30.404;2023-03-15T07:20:00;99211.53;;;25.08;34.86
77737;BME280;66903;59.926;30.404;2023-03-15T07:25:00;99213.06;;;25.06;34.51
77737;BME280;66903;59.926;30.404;2023-03-15T07:30:01;99219.13;;;25.04;34.81
77737;BME280;66903;59.926;30.404;2023-03-15T07:35:01;99220.25;;;25.12;34.75
77737;BME280;66903;59.926;30.404;2023-03-15T07:40:02;99242.09;;;25.29;34.68
77737;BME280;66903;59.926;30.404;2023-03-15T07:45:08;99227.09;;;25.32;34.59
77737;BME280;66903;59.926;30.404;2023-03-15T07:50:09;99241.63;;;25.27;34.62
77737;BME280;66903;59.926;30.404;2023-03-15T07:55:11;99244.13;;;25.28;34.78
77737;BME280;66903;59.926;30.404;2023-03-15T08:00:12;99234.03;;;25.31;34.58
77737;BME280;66903;59.926;30.404;2023-03-15T08:05:13;99219.72;;;25.31;34.51
77737;BME280;66903;59.926;30.404;2023-03-15T08:10:15;99233.53;;;25.29;34.63
77737;BME280;66903;59.926;30.404;2023-03-15T08:15:15;99238.75;;;25.27;34.68
77737;BME280;66903;59.926;30.404;2023-03-15T08:20:16;99240.44;;;25.28;34.46
77737;BME280;66903;59.926;30.404;2023-03-15T08:25:23;99259.13;;;25.25;34.39
77737;BME280;66903;59.926;30.404;2023-03-15T08:30:29;99273.75;;;25.24;34.46
77737;BME280;66903;59.926;30.404;2023-03-15T08:35:30;99288.25;;;25.18;34.57
77737;BME280;66903;59.926;30.404;2023-03-15T08:40:32;99298.00;;;25.17;34.52
77737;BME280;66903;59.926;30.404;2023-03-15T08:45:32;99302.75;;;25.13;34.30
77737;BME280;66903;59.926;30.404;2023-03-15T08:50:33;99381.09;;;25.12;34.48
77737;BME280;66903;59.926;30.404;2023-03-15T08:55:33;99418.69;;;25.23;34.53
77737;BME280;66903;59.926;30.404;2023-03-15T09:00:34;99447.53;;;25.39;34.06
77737;BME280;66903;59.926;30.404;2023-03-15T09:05:35;99476.72;;;25.53;33.84
77737;BME280;66903;59.926;30.404;2023-03-15T09:10:36;99473.84;;;25.61;33.79
77737;BME280;66903;59.926;30.404;2023-03-15T09:15:36;99495.47;;;25.71;33.45
77737;BME280;66903;59.926;30.404;2023-03-15T09:20:37;99520.84;;;25.72;33.31
77737;BME280;66903;59.926;30.404;2023-03-15T09:25:39;99521.81;;;25.56;33.12
77737;BME280;66903;59.926;30.404;2023-03-15T09:30:40;99516.66;;;25.41;33.08
77737;BME280;66903;59.926;30.404;2023-03-15T09:35:41;99536.19;;;25.30;32.86
77737;BME280;66903;59.926;30.404;2023-03-15T09:40:43;99553.66;;;25.29;32.84
77737;BME280;66903;59.926;30.404;2023-03-15T09:51:27;99584.47;;;25.23;32.75
77737;BME280;66903;59.926;30.404;2023-03-15T09:56:35;99598.78;;;25.14;32.95
77737;BME280;66903;59.926;30.404;2023-03-15T10:01:39;99618.13;;;25.09;32.61
77737;BME280;66903;59.926;30.404;2023-03-15T10:06:46;99639.50;;;25.03;32.69
77737;BME280;66903;59.926;30.404;2023-03-15T10:17:17;99664.03;;;24.87;32.86
77737;BME280;66903;59.926;30.404;2023-03-15T10:22:47;99670.44;;;24.92;32.97
77737;BME280;66903;59.926;30.404;2023-03-15T10:33:36;99689.38;;;25.05;32.63
77737;BME280;66903;59.926;30.404;2023-03-15T10:38:37;99677.78;;;25.10;32.72
77737;BME280;66903;59.926;30.404;2023-03-15T10:43:39;99689.22;;;25.10;32.77
77737;BME280;66903;59.926;30.404;2023-03-15T10:49:07;99714.28;;;25.13;32.69
77737;BME280;66903;59.926;30.404;2023-03-15T10:54:26;99733.28;;;25.09;32.52
77737;BME280;66903;59.926;30.404;2023-03-15T10:59:33;99769.91;;;25.07;32.91
77737;BME280;66903;59.926;30.404;2023-03-15T11:04:40;99777.34;;;25.08;32.56
77737;BME280;66903;59.926;30.404;2023-03-15T11:09:42;99791.09;;;25.06;32.55
77737;BME280;66903;59.926;30.404;2023-03-15T11:14:46;99803.53;;;25.02;32.25
77737;BME280;66903;59.926;30.404;2023-03-15T11:20:26;99815.28;;;25.00;32.13
77737;BME280;66903;59.926;30.404;2023-03-15T11:25:30;99846.03;;;24.95;31.98
77737;BME280;66903;59.926;30.404;2023-03-15T11:30:32;99849.56;;;24.92;32.26
77737;BME280;66903;59.926;30.404;2023-03-15T11:35:42;99847.91;;;24.99;32.15
77737;BME280;66903;59.926;30.404;2023-03-15T11:40:50;99861.34;;;24.99;31.83
77737;BME280;66903;59.926;30.404;2023-03-15T11:51:20;99880.34;;;25.03;32.16
77737;BME280;66903;59.926;30.404;2023-03-15T11:56:22;99886.56;;;25.05;31.94
77737;BME280;66903;59.926;30.404;2023-03-15T12:01:24;99904.06;;;25.12;31.87
77737;BME280;66903;59.926;30.404;2023-03-15T12:06:38;99912.34;;;25.23;31.78
77737;BME280;66903;59.926;30.404;2023-03-15T12:11:40;99931.50;;;25.22;31.38
77737;BME280;66903;59.926;30.404;2023-03-15T12:16:44;99935.69;;;25.25;31.15
77737;BME280;66903;59.926;30.404;2023-03-15T12:21:50;99937.91;;;25.28;31.21
77737;BME280;66903;59.926;30.404;2023-03-15T12:27:03;99941.78;;;25.32;31.16
77737;BME280;66903;59.926;30.404;2023-03-15T12:32:12;99950.03;;;25.33;30.95
77737;BME280;66903;59.926;30.404;2023-03-15T12:37:15;99967.41;;;25.37;30.93
77737;BME280;66903;59.926;30.404;2023-03-15T12:47:46;100004.59;;;25.45;30.87
77737;BME280;66903;59.926;30.404;2023-03-15T12:58:34;100056.25;;;25.49;30.65
77737;BME280;66903;59.926;30.404;2023-03-15T13:03:35;100071.38;;;25.49;30.74
77737;BME280;66903;59.926;30.404;2023-03-15T13:08:49;100093.28;;;25.54;30.18
77737;BME280;66903;59.926;30.404;2023-03-15T13:19:24;100112.47;;;25.62;29.77
77737;BME280;66903;59.926;30.404;2023-03-15T13:29:51;100158.66;;;25.86;29.63
77737;BME280;66903;59.926;30.404;2023-03-15T13:34:52;100152.00;;;25.99;29.16
77737;BME280;66903;59.926;30.404;2023-03-15T13:39:59;100160.19;;;25.83;29.18
77737;BME280;66903;59.926;30.404;2023-03-15T13:45:10;100170.69;;;25.57;29.46
77737;BME280;66903;59.926;30.404;2023-03-15T13:50:15;100164.03;;;25.40;29.24
77737;BME280;66903;59.926;30.404;2023-03-15T13:55:21;100185.97;;;25.31;29.39
77737;BME280;66903;59.926;30.404;2023-03-15T14:00:22;100185.53;;;25.37;30.09
77737;BME280;66903;59.926;30.404;2023-03-15T14:05:26;100191.78;;;25.17;29.45
77737;BME280;66903;59.926;30.404;2023-03-15T14:10:36;100225.16;;;25.08;29.36
77737;BME280;66903;59.926;30.404;2023-03-15T14:15:41;100215.69;;;24.99;29.13
77737;BME280;66903;59.926;30.404;2023-03-15T14:20:52;100226.72;;;24.92;29.20
77737;BME280;66903;59.926;30.404;2023-03-15T14:31:22;100218.41;;;24.82;28.74
77737;BME280;66903;59.926;30.404;2023-03-15T14:36:29;100221.97;;;24.87;29.03
77737;BME280;66903;59.926;30.404;2023-03-15T14:41:31;100245.09;;;24.99;28.74
77737;BME280;66903;59.926;30.404;2023-03-15T14:46:51;100250.09;;;25.16;28.88
77737;BME280;66903;59.926;30.404;2023-03-15T14:51:58;100253.94;;;25.34;29.68
77737;BME280;66903;59.926;30.404;2023-03-15T14:57:00;100272.41;;;25.28;28.24
77737;BME280;66903;59.926;30.404;2023-03-15T15:02:00;100270.06;;;25.30;28.52
77737;BME280;66903;59.926;30.404;2023-03-15T15:07:02;100282.44;;;25.39;28.86
77737;BME280;66903;59.926;30.404;2023-03-15T15:12:02;100287.00;;;25.40;29.37
77737;BME280;66903;59.926;30.404;2023-03-15T15:17:03;100287.91;;;25.35;29.63
77737;BME280;66903;59.926;30.404;2023-03-15T15:22:10;100281.75;;;25.19;29.85
77737;BME280;66903;59.926;30.404;2023-03-15T15:27:10;100295.56;;;25.04;30.58
77737;BME280;66903;59.926;30.404;2023-03-15T15:32:11;100290.31;;;24.97;31.22
77737;BME280;66903;59.926;30.404;2023-03-15T15:37:12;100312.84;;;24.99;31.06
77737;BME280;66903;59.926;30.404;2023-03-15T15:42:12;100321.22;;;24.95;31.61
77737;BME280;66903;59.926;30.404;2023-03-15T15:47:13;100330.97;;;24.94;31.84
77737;BME280;66903;59.926;30.404;2023-03-15T15:52:13;100337.63;;;24.90;32.85
77737;BME280;66903;59.926;30.404;2023-03-15T15:57:15;100347.78;;;24.82;33.38
77737;BME280;66903;59.926;30.404;2023-03-15T16:02:20;100366.63;;;24.83;32.94
77737;BME280;66903;59.926;30.404;2023-03-15T16:07:22;100373.00;;;24.80;32.55
77737;BME280;66903;59.926;30.404;2023-03-15T16:12:27;100386.22;;;24.76;32.28
77737;BME280;66903;59.926;30.404;2023-03-15T16:17:28;100386.88;;;24.73;31.73
77737;BME280;66903;59.926;30.404;2023-03-15T16:22:28;100387.25;;;24.67;31.39
77737;BME280;66903;59.926;30.404;2023-03-15T16:27:29;100410.72;;;24.64;31.76
77737;BME280;66903;59.926;30.404;2023-03-15T16:32:30;100418.75;;;24.62;31.01
77737;BME280;66903;59.926;30.404;2023-03-15T16:37:31;100430.19;;;24.62;31.35
77737;BME280;66903;59.926;30.404;2023-03-15T16:42:31;100429.66;;;24.60;31.61
77737;BME280;66903;59.926;30.404;2023-03-15T16:47:32;100427.13;;;24.58;30.99
77737;BME280;66903;59.926;30.404;2023-03-15T16:52:32;100441.06;;;24.60;31.19
77737;BME280;66903;59.926;30.404;2023-03-15T16:57:33;100438.66;;;24.53;31.57
77737;BME280;66903;59.926;30.404;2023-03-15T17:02:33;100454.59;;;24.54;31.32
77737;BME280;66903;59.926;30.404;2023-03-15T17:07:36;100451.75;;;24.54;31.46
77737;BME280;66903;59.926;30.404;2023-03-15T17:12:38;100462.13;;;24.50;31.59
77737;BME280;66903;59.926;30.404;2023-03-15T17:17:39;100469.00;;;24.49;31.42
77737;BME280;66903;59.926;30.404;2023-03-15T17:22:40;100469.94;;;24.45;31.51
77737;BME280;66903;59.926;30.404;2023-03-15T17:27:43;100493.00;;;24.48;31.20
77737;BME280;66903;59.926;30.404;2023-03-15T17:32:45;100479.38;;;24.45;31.00
77737;BME280;66903;59.926;30.404;2023-03-15T17:37:54;100475.34;;;24.46;31.16
77737;BME280;66903;59.926;30.404;2023-03-15T17:42:57;100492.47;;;24.46;31.35
77737;BME280;66903;59.926;30.404;2023-03-15T17:47:59;100496.50;;;24.45;31.00
77737;BME280;66903;59.926;30.404;2023-03-15T17:53:03;100492.47;;;24.46;31.24
77737;BME280;66903;59.926;30.404;2023-03-15T17:58:10;100491.28;;;24.47;31.68
77737;BME280;66903;59.926;30.404;2023-03-15T18:03:16;100506.44;;;24.48;31.78
77737;BME280;66903;59.926;30.404;2023-03-15T18:08:19;100497.97;;;24.43;31.67
77737;BME280;66903;59.926;30.404;2023-03-15T18:13:21;100518.72;;;24.48;31.80
77737;BME280;66903;59.926;30.404;2023-03-15T18:18:22;100520.38;;;24.49;31.94
77737;BME280;66903;59.926;30.404;2023-03-15T18:23:23;100517.00;;;24.47;31.48
77737;BME280;66903;59.926;30.404;2023-03-15T18:28:24;100518.16;;;24.46;31.39
77737;BME280;66903;59.926;30.404;2023-03-15T18:33:24;100515.00;;;24.48;31.63
77737;BME280;66903;59.926;30.404;2023-03-15T18:38:25;100525.56;;;24.47;31.57
77737;BME280;66903;59.926;30.404;2023-03-15T18:43:26;100525.78;;;24.51;31.62
77737;BME280;66903;59.926;30.404;2023-03-15T18:48:27;100520.94;;;24.51;31.34
77737;BME280;66903;59.926;30.404;2023-03-15T18:53:27;100510.03;;;24.53;31.35
77737;BME280;66903;59.926;30.404;2023-03-15T18:58:28;100509.50;;;24.51;31.17
77737;BME280;66903;59.926;30.404;2023-03-15T19:03:30;100508.16;;;24.49;31.11
77737;BME280;66903;59.926;30.404;2023-03-15T19:08:32;100508.53;;;24.42;30.74
77737;BME280;66903;59.926;30.404;2023-03-15T19:13:33;100515.94;;;24.43;30.82
77737;BME280;66903;59.926;30.404;2023-03-15T19:18:33;100539.56;;;24.49;30.61
77737;BME280;66903;59.926;30.404;2023-03-15T19:23:34;100536.69;;;24.49;31.21
77737;BME280;66903;59.926;30.404;2023-03-15T19:28:35;100546.63;;;24.51;30.92
77737;BME280;66903;59.926;30.404;2023-03-15T19:33:36;100544.94;;;24.50;30.99
77737;BME280;66903;59.926;30.404;2023-03-15T19:38:37;100550.13;;;24.48;30.87
77737;BME280;66903;59.926;30.404;2023-03-15T19:43:39;100556.84;;;24.06;28.51
77737;BME280;66903;59.926;30.404;2023-03-15T19:48:42;100563.03;;;21.17;29.83
77737;BME280;66903;59.926;30.404;2023-03-15T19:53:42;100542.25;;;19.16;33.44
77737;BME280;66903;59.926;30.404;2023-03-15T19:58:43;100558.34;;;19.92;33.20
77737;BME280;66903;59.926;30.404;2023-03-15T20:03:45;100567.09;;;21.01;32.47
77737;BME280;66903;59.926;30.404;2023-03-15T20:08:45;100565.25;;;21.84;32.14
77737;BME280;66903;59.926;30.404;2023-03-15T20:13:46;100566.44;;;22.50;31.65
77737;BME280;66903;59.926;30.404;2023-03-15T20:18:47;100577.88;;;23.02;31.35
77737;BME280;66903;59.926;30.404;2023-03-15T20:23:50;100578.38;;;23.33;30.77
77737;BME280;66903;59.926;30.404;2023-03-15T20:28:50;100596.41;;;23.71;31.10
77737;BME280;66903;59.926;30.404;2023-03-15T20:33:54;100595.59;;;23.89;30.53
77737;BME280;66903;59.926;30.404;2023-03-15T20:39:04;100605.59;;;24.10;30.82
77737;BME280;66903;59.926;30.404;2023-03-15T20:44:05;100604.47;;;24.25;30.78
77737;BME280;66903;59.926;30.404;2023-03-15T20:49:27;100604.84;;;24.37;30.92
77737;BME280;66903;59.926;30.404;2023-03-15T21:00:27;100610.53;;;24.55;30.39
77737;BME280;66903;59.926;30.404;2023-03-15T21:05:36;100622.00;;;24.69;30.28
77737;BME280;66903;59.926;30.404;2023-03-15T21:10:55;100620.47;;;24.76;30.32
77737;BME280;66903;59.926;30.404;2023-03-15T21:16:17;100615.53;;;24.82;30.45
77737;BME280;66903;59.926;30.404;2023-03-15T21:21:24;100621.78;;;24.84;30.63
77737;BME280;66903;59.926;30.404;2023-03-15T21:26:30;100620.81;;;24.88;30.67
77737;BME280;66903;59.926;30.404;2023-03-15T21:31:30;100631.97;;;25.03;30.49
77737;BME280;66903;59.926;30.404;2023-03-15T21:36:31;100634.38;;;24.96;30.38
77737;BME280;66903;59.926;30.404;2023-03-15T21:41:47;100637.25;;;24.96;30.59
77737;BME280;66903;59.926;30.404;2023-03-15T21:46:50;100640.31;;;25.00;30.71
77737;BME280;66903;59.926;30.404;2023-03-15T21:51:52;100651.47;;;25.01;30.37
77737;BME280;66903;59.926;30.404;2023-03-15T21:57:29;100660.25;;;25.05;30.39
77737;BME280;66903;59.926;30.404;2023-03-15T22:02:35;100669.16;;;25.17;30.68
77737;BME280;66903;59.926;30.404;2023-03-15T22:07:40;100677.31;;;25.10;30.33
77737;BME280;66903;59.926;30.404;2023-03-15T22:12:47;100670.72;;;25.09;31.06
77737;BME280;66903;59.926;30.404;2023-03-15T22:17:50;100681.31;;;25.09;30.73
77737;BME280;66903;59.926;30.404;2023-03-15T22:22:51;100686.41;;;25.12;30.57
77737;BME280;66903;59.926;30.404;2023-03-15T22:27:54;100700.06;;;25.15;30.51
77737;BME280;66903;59.926;30.404;2023-03-15T22:33:12;100702.94;;;25.15;30.92
77737;BME280;66903;59.926;30.404;2023-03-15T22:38:25;100712.88;;;25.17;30.67
77737;BME280;66903;59.926;30.404;2023-03-15T22:49:37;100723.16;;;25.18;30.63
77737;BME280;66903;59.926;30.404;2023-03-15T22:54:40;100741.47;;;25.17;30.84
77737;BME280;66903;59.926;30.404;2023-03-15T22:59:42;100744.03;;;25.19;30.68
77737;BME280;66903;59.926;30.404;2023-03-15T23:05:14;100740.22;;;25.24;30.78
77737;BME280;66903;59.926;30.404;2023-03-15T23:10:19;100755.97;;;25.21;30.76
77737;BME280;66903;59.926;30.404;2023-03-15T23:15:20;100754.53;;;25.24;30.91
77737;BME280;66903;59.926;30.404;2023-03-15T23:20:21;100757.94;;;25.26;30.72
77737;BME280;66903;59.926;30.404;2023-03-15T23:25:49;100764.19;;;25.28;30.66
77737;BME280;66903;59.926;30.404;2023-03-15T23:30:50;100767.97;;;25.23;30.58
77737;BME280;66903;59.926;30.404;2023-03-15T23:35:51;100770.81;;;25.23;30.91
77737;BME280;66903;59.926;30.404;2023-03-15T23:46:29;100772.00;;;25.22;30.78
77737;BME280;66903;59.926;30.404;2023-03-15T23:51:36;100782.56;;;25.22;30.51
77737;BME280;66903;59.926;30.404;2023-03-15T23:56:36;100786.50;;;25.26;30.63
